Time;durP1;ratioP1;P1;durP2;ratioP2;P2;SDS_P1;SDS_P2;PMS_P1;PMS_P2;Temp;Humidity;BMP_temperature;BMP_pressure;BME280_temperature;BME280_humidity;BME280_pressure;Samples;Min_cycle;Max_cycle;Signal;HPM_P1;HPM_P2
2021/06/21 00:02:25;;;;;;;0.50;0.30;;;;;;;21.94;100.00;99217.63;5011751;28;20507;-51
2021/06/21 00:04:54;;;;;;;1.47;1.37;;;;;;;21.98;100.00;99232.59;5003956;28;20875;-52
2021/06/21 00:07:21;;;;;;;0.50;0.20;;;;;;;21.89;100.00;99225.31;5008443;28;20449;-51
2021/06/21 00:09:48;;;;;;;0.67;0.53;;;;;;;21.91;100.00;99219.75;5011438;28;20547;-52
2021/06/21 00:12:17;;;;;;;0.67;0.57;;;;;;;21.92;100.00;99210.63;5011670;28;20459;-51
2021/06/21 00:14:45;;;;;;;2.00;1.43;;;;;;;21.87;100.00;99219.19;5011827;28;20448;-51
2021/06/21 00:17:14;;;;;;;0.50;0.20;;;;;;;21.84;100.00;99214.91;5011532;28;20452;-52
2021/06/21 00:19:42;;;;;;;0.50;0.30;;;;;;;21.86;100.00;99220.19;5013781;28;20496;-51
2021/06/21 00:22:08;;;;;;;0.50;0.20;;;;;;;21.78;100.00;99214.59;5015679;28;20526;-51
2021/06/21 00:24:35;;;;;;;0.50;0.20;;;;;;;21.80;100.00;99209.94;5015458;28;21707;-52
2021/06/21 00:27:02;;;;;;;1.10;1.10;;;;;;;21.61;100.00;99208.06;5015663;28;20508;-51
2021/06/21 00:29:29;;;;;;;0.60;0.50;;;;;;;21.78;100.00;99210.06;5015675;28;20448;-51
2021/06/21 00:31:55;;;;;;;0.50;0.20;;;;;;;21.61;100.00;99207.19;5015513;28;20460;-51
2021/06/21 00:34:22;;;;;;;0.50;0.20;;;;;;;21.32;100.00;99202.59;5011565;28;20453;-51
2021/06/21 00:36:49;;;;;;;0.50;0.20;;;;;;;21.41;100.00;99201.78;5014320;28;20456;-51
2021/06/21 00:39:15;;;;;;;0.90;0.90;;;;;;;21.40;100.00;99201.91;5015504;28;20550;-50
2021/06/21 00:41:42;;;;;;;3.10;2.20;;;;;;;21.35;100.00;99204.16;5002436;28;20472;-50
2021/06/21 00:44:09;;;;;;;0.50;0.30;;;;;;;21.39;100.00;99211.88;5015956;28;20483;-51
2021/06/21 00:46:36;;;;;;;28.33;1.60;;;;;;;21.44;100.00;99214.16;5012638;28;20516;-51
2021/06/21 00:49:04;;;;;;;0.50;0.40;;;;;;;21.55;100.00;99203.22;5015196;28;20445;-51
2021/06/21 00:51:32;;;;;;;0.50;0.20;;;;;;;21.68;100.00;99201.09;5014972;28;20484;-51
2021/06/21 00:54:00;;;;;;;0.50;0.20;;;;;;;21.71;100.00;99198.09;5015065;28;20571;-51
2021/06/21 00:56:27;;;;;;;0.50;0.20;;;;;;;21.38;100.00;99198.47;5015054;28;20449;-51
2021/06/21 00:58:58;;;;;;;0.50;0.20;;;;;;;21.43;100.00;99207.91;5013456;28;20492;-51
2021/06/21 01:01:25;;;;;;;0.50;0.20;;;;;;;21.31;100.00;99209.00;5014657;28;20502;-51
2021/06/21 01:03:52;;;;;;;0.50;0.20;;;;;;;21.37;100.00;99208.44;5014658;28;20510;-51
2021/06/21 01:06:18;;;;;;;0.50;0.20;;;;;;;21.33;100.00;99200.75;5003938;28;20456;-51
2021/06/21 01:08:46;;;;;;;0.50;0.20;;;;;;;21.33;100.00;99200.75;5014826;28;20449;-51
2021/06/21 01:11:14;;;;;;;0.50;0.20;;;;;;;21.26;100.00;99192.34;5014827;28;20522;-51
2021/06/21 01:13:49;;;;;;;0.50;0.20;;;;;;;21.12;100.00;99185.44;5014758;28;20969;-51
2021/06/21 01:16:32;;;;;;;0.50;0.20;;;;;;;21.21;100.00;99181.03;5013760;28;20827;-51
2021/06/21 01:19:18;;;;;;;0.50;0.20;;;;;;;21.17;100.00;99180.47;5013552;28;20499;-51
2021/06/21 01:22:30;;;;;;;0.50;0.20;;;;;;;21.33;100.00;99187.22;5014684;28;20563;-51
2021/06/21 01:25:02;;;;;;;0.50;0.20;;;;;;;21.23;100.00;99176.34;4991549;28;20522;-51
2021/06/21 01:27:57;;;;;;;0.50;0.20;;;;;;;21.10;100.00;99175.75;5014817;28;20518;-51
2021/06/21 01:31:01;;;;;;;0.50;0.30;;;;;;;21.07;100.00;99171.47;4987866;28;20473;-51
2021/06/21 01:33:29;;;;;;;0.50;0.30;;;;;;;21.16;100.00;99181.47;4996372;28;20444;-51
2021/06/21 01:35:59;;;;;;;0.50;0.20;;;;;;;21.03;100.00;99180.00;5009579;28;20980;-51
2021/06/21 01:38:30;;;;;;;0.50;0.20;;;;;;;20.99;100.00;99183.00;5013941;28;20511;-51
2021/06/21 01:41:01;;;;;;;0.50;0.30;;;;;;;21.04;100.00;99179.88;5001217;28;20443;-51
2021/06/21 01:43:32;;;;;;;0.50;0.20;;;;;;;21.17;100.00;99183.19;5014182;28;20893;-51
2021/06/21 01:46:02;;;;;;;0.50;0.20;;;;;;;20.97;100.00;99163.38;5012332;28;20464;-51
2021/06/21 01:48:31;;;;;;;0.50;0.20;;;;;;;20.83;100.00;99166.44;5013124;28;20669;-50
2021/06/21 01:50:59;;;;;;;0.50;0.20;;;;;;;20.75;100.00;99173.50;5013880;28;20702;-51
2021/06/21 01:53:30;;;;;;;0.50;0.20;;;;;;;20.78;100.00;99175.94;5014061;28;20808;-51
2021/06/21 01:56:00;;;;;;;0.50;0.20;;;;;;;20.68;100.00;99181.28;5013870;28;20472;-50
2021/06/21 01:58:30;;;;;;;0.50;0.20;;;;;;;20.62;100.00;99173.72;5014183;28;20578;-51
2021/06/21 02:01:00;;;;;;;0.50;0.20;;;;;;;20.66;100.00;99169.75;5013781;28;20499;-51
2021/06/21 02:03:28;;;;;;;0.50;0.20;;;;;;;20.38;100.00;99174.84;5014089;28;20460;-50
2021/06/21 02:05:57;;;;;;;0.50;0.20;;;;;;;20.40;100.00;99178.25;5002316;28;20515;-50
2021/06/21 02:08:25;;;;;;;0.50;0.20;;;;;;;20.52;100.00;99175.53;5013704;28;20449;-51
2021/06/21 02:10:53;;;;;;;0.70;0.60;;;;;;;20.54;100.00;99181.63;5013407;28;20873;-50
2021/06/21 02:13:22;;;;;;;0.93;0.90;;;;;;;20.60;100.00;99190.06;5014355;28;20457;-50
2021/06/21 02:15:50;;;;;;;0.50;0.20;;;;;;;20.50;100.00;99189.16;5013789;28;20511;-50
2021/06/21 02:18:18;;;;;;;0.50;0.20;;;;;;;20.57;100.00;99186.78;5012526;28;21020;-51
2021/06/21 02:20:47;;;;;;;0.50;0.20;;;;;;;20.60;100.00;99190.06;4986630;28;20979;-50
2021/06/21 02:23:17;;;;;;;0.50;0.20;;;;;;;20.62;100.00;99195.34;5013295;28;20444;-51
2021/06/21 02:25:48;;;;;;;0.50;0.30;;;;;;;20.63;100.00;99205.16;5013697;28;20934;-51
2021/06/21 02:28:16;;;;;;;0.50;0.20;;;;;;;20.67;100.00;99209.28;5013463;28;20494;-51
2021/06/21 02:30:44;;;;;;;0.50;0.20;;;;;;;20.64;100.00;99212.25;5013278;28;20488;-51
2021/06/21 02:33:13;;;;;;;0.50;0.20;;;;;;;20.58;100.00;99205.56;5013150;28;20452;-50
2021/06/21 02:35:39;;;;;;;0.50;0.20;;;;;;;20.64;100.00;99206.84;5008539;28;20457;-51
2021/06/21 02:38:06;;;;;;;0.87;0.87;;;;;;;20.72;100.00;99207.06;5013205;28;20488;-50
2021/06/21 02:40:33;;;;;;;0.70;0.67;;;;;;;20.63;100.00;99207.84;5002982;28;20466;-50
2021/06/21 02:42:59;;;;;;;0.50;0.20;;;;;;;20.73;100.00;99207.91;5009875;28;20452;-50
2021/06/21 02:45:26;;;;;;;0.50;0.20;;;;;;;20.73;100.00;99203.34;5013154;28;20452;-50
2021/06/21 02:47:53;;;;;;;0.50;0.20;;;;;;;20.74;100.00;99210.47;5011062;28;20460;-51
2021/06/21 02:50:20;;;;;;;0.50;0.20;;;;;;;20.73;100.00;99210.59;5012704;28;20608;-51
2021/06/21 02:52:59;;;;;;;0.50;0.20;;;;;;;20.81;99.93;99213.47;5013126;28;20491;-50
2021/06/21 02:55:49;;;;;;;0.50;0.20;;;;;;;20.72;100.00;99215.16;5013121;28;20499;-51
2021/06/21 02:58:20;;;;;;;0.50;0.20;;;;;;;20.66;100.00;99221.06;5013523;28;20444;-51
2021/06/21 03:00:51;;;;;;;0.50;0.20;;;;;;;20.86;99.81;99230.16;5012863;28;20473;-51
2021/06/21 03:03:23;;;;;;;0.50;0.20;;;;;;;20.75;100.00;99228.38;5011479;28;20453;-51
2021/06/21 03:05:51;;;;;;;0.50;0.20;;;;;;;20.69;100.00;99237.00;5001801;28;20449;-51
2021/06/21 03:08:19;;;;;;;0.50;0.20;;;;;;;20.67;100.00;99239.00;5012815;28;20826;-51
2021/06/21 03:10:48;;;;;;;0.50;0.20;;;;;;;20.45;100.00;99241.84;5012439;28;20481;-50
2021/06/21 03:13:19;;;;;;;0.50;0.20;;;;;;;20.58;100.00;99237.97;5012496;28;20448;-50
2021/06/21 03:15:45;;;;;;;0.50;0.20;;;;;;;20.38;100.00;99219.88;5012591;28;20453;-50
2021/06/21 03:18:13;;;;;;;0.50;0.20;;;;;;;20.39;100.00;99230.53;5012788;28;20507;-50
2021/06/21 03:20:41;;;;;;;0.50;0.20;;;;;;;20.48;100.00;99223.53;5012215;28;20858;-50
2021/06/21 03:23:09;;;;;;;0.50;0.20;;;;;;;20.49;100.00;99236.06;5013028;28;20456;-50
2021/06/21 03:25:36;;;;;;;0.50;0.20;;;;;;;20.60;100.00;99232.44;4986567;28;20453;-51
2021/06/21 03:28:12;;;;;;;0.50;0.20;;;;;;;20.35;100.00;99229.09;5012443;28;20477;-50
2021/06/21 03:30:52;;;;;;;0.50;0.20;;;;;;;20.23;100.00;99213.09;5012640;28;20526;-50
2021/06/21 03:33:20;;;;;;;3.20;1.60;;;;;;;20.18;100.00;99229.69;5012332;28;20891;-51
2021/06/21 03:35:48;;;;;;;1.50;1.33;;;;;;;20.17;100.00;99224.44;5008596;28;20449;-50
2021/06/21 03:38:20;;;;;;;0.50;0.20;;;;;;;20.25;100.00;99240.81;5012615;28;20946;-51
2021/06/21 03:40:49;;;;;;;0.50;0.20;;;;;;;20.09;100.00;99260.16;5001012;28;20485;-51
2021/06/21 03:43:18;;;;;;;0.50;0.20;;;;;;;20.09;100.00;99258.31;5011423;28;20445;-51
2021/06/21 03:45:46;;;;;;;0.50;0.20;;;;;;;20.14;100.00;99268.72;5010931;28;20950;-51
2021/06/21 03:48:13;;;;;;;0.50;0.20;;;;;;;20.22;100.00;99260.84;4985888;28;20452;-50
2021/06/21 03:50:40;;;;;;;0.50;0.20;;;;;;;20.32;100.00;99250.97;5003016;28;20511;-50
2021/06/21 03:53:07;;;;;;;0.50;0.20;;;;;;;20.26;100.00;99256.88;5011678;28;20463;-50
2021/06/21 03:55:34;;;;;;;0.50;0.20;;;;;;;20.26;100.00;99248.78;5010262;28;20449;-51
2021/06/21 03:58:01;;;;;;;0.50;0.20;;;;;;;20.23;100.00;99257.16;5012295;28;20467;-51
2021/06/21 04:00:30;;;;;;;0.50;0.20;;;;;;;20.21;100.00;99250.16;5011829;28;20566;-51
2021/06/21 04:02:57;;;;;;;0.50;0.20;;;;;;;20.51;100.00;99262.91;5012023;28;20459;-51
2021/06/21 04:05:25;;;;;;;0.50;0.20;;;;;;;20.39;100.00;99260.25;5000548;28;20484;-51
2021/06/21 04:07:53;;;;;;;0.50;0.20;;;;;;;20.39;100.00;99257.53;5012294;28;20459;-51
2021/06/21 04:10:23;;;;;;;0.50;0.20;;;;;;;20.55;100.00;99256.25;5011579;28;20468;-51
2021/06/21 04:12:51;;;;;;;0.50;0.20;;;;;;;20.41;100.00;99254.72;5011899;28;20797;-51
2021/06/21 04:15:20;;;;;;;0.50;0.20;;;;;;;20.51;100.00;99249.41;5011717;28;20479;-50
2021/06/21 04:17:48;;;;;;;0.50;0.20;;;;;;;20.36;100.00;99255.13;5011815;28;20444;-50
2021/06/21 04:20:18;;;;;;;0.50;0.20;;;;;;;20.54;100.00;99260.81;5012254;28;20497;-51
2021/06/21 04:22:46;;;;;;;0.50;0.20;;;;;;;20.67;100.00;99260.59;5012355;28;20444;-51
2021/06/21 04:25:15;;;;;;;0.50;0.20;;;;;;;20.52;100.00;99267.31;5011512;28;20488;-51
2021/06/21 04:27:42;;;;;;;0.50;0.20;;;;;;;20.67;100.00;99266.00;5011837;28;20531;-51
2021/06/21 04:30:12;;;;;;;0.50;0.20;;;;;;;20.80;100.00;99266.63;5011362;28;20464;-51
2021/06/21 04:32:39;;;;;;;0.50;0.20;;;;;;;20.56;100.00;99269.66;5011506;28;20507;-51
2021/06/21 04:35:10;;;;;;;0.50;0.20;;;;;;;20.60;100.00;99264.84;5006715;28;20449;-50
2021/06/21 04:37:37;;;;;;;0.50;0.20;;;;;;;20.35;100.00;99269.59;5011369;28;20495;-51
2021/06/21 04:40:07;;;;;;;0.50;0.20;;;;;;;20.50;100.00;99278.25;5005048;28;20540;-51
2021/06/21 04:42:33;;;;;;;0.50;0.20;;;;;;;20.63;100.00;99272.66;5004873;28;20452;-51
2021/06/21 04:45:01;;;;;;;0.50;0.20;;;;;;;20.57;100.00;99271.34;4985275;28;20427;-51
2021/06/21 04:47:28;;;;;;;0.50;0.20;;;;;;;20.44;100.00;99277.94;5009654;28;20452;-51
2021/06/21 04:49:56;;;;;;;0.50;0.20;;;;;;;20.44;100.00;99280.66;5011527;28;20479;-51
2021/06/21 04:52:28;;;;;;;0.50;0.20;;;;;;;20.62;100.00;99273.66;5010314;28;20448;-51
2021/06/21 04:55:01;;;;;;;0.73;0.73;;;;;;;20.50;100.00;99282.81;5011380;28;20938;-51
2021/06/21 04:57:29;;;;;;;0.50;0.20;;;;;;;20.73;100.00;99281.69;5011308;28;20480;-51
2021/06/21 04:59:56;;;;;;;0.50;0.20;;;;;;;20.60;100.00;99276.50;5011555;28;20542;-51
2021/06/21 05:02:23;;;;;;;0.50;0.20;;;;;;;20.62;100.00;99277.22;5011254;28;20842;-51
2021/06/21 05:04:50;;;;;;;0.50;0.20;;;;;;;20.63;100.00;99270.81;5004373;28;20446;-51
2021/06/21 05:07:17;;;;;;;1.93;1.93;;;;;;;20.84;100.00;99275.34;5012086;28;20448;-51
2021/06/21 05:09:44;;;;;;;0.50;0.20;;;;;;;20.94;100.00;99266.28;5013753;28;20472;-51
2021/06/21 05:12:11;;;;;;;0.50;0.20;;;;;;;21.09;100.00;99257.81;5014191;28;20507;-51
2021/06/21 05:14:38;;;;;;;0.50;0.20;;;;;;;21.20;99.45;99258.59;5015492;28;20462;-51
2021/06/21 05:17:08;;;;;;;0.50;0.20;;;;;;;20.99;100.00;99264.06;5015282;28;20938;-51
2021/06/21 05:19:35;;;;;;;4.87;2.00;;;;;;;21.16;100.00;99262.56;5015179;28;20484;-51
2021/06/21 05:22:03;;;;;;;0.50;0.20;;;;;;;21.17;100.00;99252.59;5015094;28;20484;-51
2021/06/21 05:24:31;;;;;;;0.50;0.20;;;;;;;21.36;99.19;99258.09;5014931;28;20431;-51
2021/06/21 05:26:58;;;;;;;0.50;0.20;;;;;;;21.44;98.08;99257.41;5015329;28;20452;-51
2021/06/21 05:29:24;;;;;;;0.50;0.20;;;;;;;21.22;97.33;99255.75;5013877;28;20818;-51
2021/06/21 05:31:53;;;;;;;0.50;0.30;;;;;;;21.36;97.58;99252.69;5015299;28;20527;-51
2021/06/21 05:34:19;;;;;;;0.50;0.20;;;;;;;21.06;98.27;99255.41;5011430;28;20539;-51
2021/06/21 05:36:46;;;;;;;0.63;0.63;;;;;;;21.28;98.53;99260.66;5014449;28;20453;-51
2021/06/21 05:39:13;;;;;;;0.50;0.30;;;;;;;21.05;99.17;99268.06;5014677;28;20622;-51
2021/06/21 05:41:39;;;;;;;0.50;0.20;;;;;;;21.43;97.34;99270.09;5001517;28;20439;-51
2021/06/21 05:44:06;;;;;;;0.50;0.20;;;;;;;21.27;97.27;99273.31;5014984;28;20456;-51
2021/06/21 05:46:32;;;;;;;2.30;0.77;;;;;;;20.72;97.65;99268.31;5012447;28;20460;-51
2021/06/21 05:48:59;;;;;;;0.50;0.20;;;;;;;21.17;97.22;99274.22;5014942;28;20511;-51
2021/06/21 05:51:26;;;;;;;0.50;0.20;;;;;;;21.20;96.89;99277.50;5013931;28;20886;-51
2021/06/21 05:53:52;;;;;;;0.50;0.20;;;;;;;21.28;96.56;99274.16;5014960;28;20459;-51
2021/06/21 05:56:19;;;;;;;0.50;0.20;;;;;;;21.16;96.03;99275.22;4999491;28;20468;-51
2021/06/21 05:58:46;;;;;;;0.50;0.20;;;;;;;20.99;96.77;99280.28;5006965;28;20944;-51
2021/06/21 06:01:12;;;;;;;0.50;0.20;;;;;;;21.38;95.34;99282.28;5000364;28;20528;-51
2021/06/21 06:03:39;;;;;;;0.50;0.20;;;;;;;21.59;93.73;99281.22;5014406;28;20942;-51
2021/06/21 06:06:06;;;;;;;0.50;0.20;;;;;;;21.37;95.35;99273.31;5013961;28;20452;-51
2021/06/21 06:08:32;;;;;;;0.50;0.20;;;;;;;21.94;93.98;99268.19;5012675;28;20543;-51
2021/06/21 06:11:00;;;;;;;0.50;0.20;;;;;;;22.59;91.63;99270.16;5013623;28;20539;-52
2021/06/21 06:13:27;;;;;;;0.50;0.20;;;;;;;23.20;88.09;99287.88;5014211;28;20866;-51
2021/06/21 06:15:54;;;;;;;1.67;1.43;;;;;;;22.81;88.18;99290.69;5014142;28;20452;-51
2021/06/21 06:18:21;;;;;;;0.50;0.20;;;;;;;22.75;88.25;99278.59;5013207;28;20886;-51
2021/06/21 06:20:48;;;;;;;0.50;0.20;;;;;;;22.62;87.90;99290.72;5014366;28;20504;-51
2021/06/21 06:23:34;;;;;;;0.50;0.20;;;;;;;22.84;87.55;99290.41;5013906;28;20454;-51
2021/06/21 06:26:01;;;;;;;0.50;0.20;;;;;;;22.55;89.37;99290.44;5013651;28;20449;-51
2021/06/21 06:28:28;;;;;;;0.50;0.20;;;;;;;22.55;87.91;99295.84;5013672;28;20897;-51
2021/06/21 06:30:54;;;;;;;0.50;0.20;;;;;;;23.10;86.17;99300.63;5013574;28;20476;-51
2021/06/21 06:33:21;;;;;;;0.50;0.30;;;;;;;23.47;82.71;99300.63;5013505;28;21033;-51
2021/06/21 06:35:48;;;;;;;0.50;0.20;;;;;;;23.47;83.35;99296.03;5013843;28;20435;-51
2021/06/21 06:38:14;;;;;;;0.50;0.20;;;;;;;23.59;82.35;99297.59;5013374;28;20427;-51
2021/06/21 06:40:41;;;;;;;0.50;0.30;;;;;;;22.97;83.48;99301.78;5002395;28;21010;-51
2021/06/21 06:43:07;;;;;;;0.50;0.30;;;;;;;23.46;83.12;99313.31;5011611;28;20510;-51
2021/06/21 06:45:34;;;;;;;0.50;0.20;;;;;;;23.64;83.37;99299.84;5013530;28;20816;-51
2021/06/21 06:48:02;;;;;;;0.50;0.20;;;;;;;23.36;81.43;99296.22;5012481;28;20465;-51
2021/06/21 06:50:28;;;;;;;0.50;0.20;;;;;;;23.63;80.64;99292.69;5013609;28;20480;-51
2021/06/21 06:53:00;;;;;;;0.90;0.90;;;;;;;23.81;80.81;99309.00;5013624;28;20455;-51
2021/06/21 06:58:13;;;;;;;0.50;0.20;;;;;;;23.60;80.49;99323.72;5013126;28;20540;-51
2021/06/21 07:00:39;;;;;;;0.50;0.30;;;;;;;23.21;83.95;99314.84;5013191;28;20523;-51
2021/06/21 07:03:08;;;;;;;0.50;0.20;;;;;;;22.88;83.84;99316.22;5013208;28;20484;-51
2021/06/21 07:05:35;;;;;;;0.50;0.30;;;;;;;22.40;85.98;99324.38;5012916;28;20957;-51
2021/06/21 07:08:02;;;;;;;0.50;0.20;;;;;;;22.40;87.08;99317.09;5013062;28;20804;-51
2021/06/21 07:10:29;;;;;;;0.50;0.20;;;;;;;22.45;87.53;99322.09;5012642;28;20469;-51
2021/06/21 07:12:56;;;;;;;0.50;0.20;;;;;;;22.29;87.71;99327.22;5012942;28;20460;-51
2021/06/21 07:15:23;;;;;;;0.50;0.20;;;;;;;22.51;87.17;99331.50;5012961;28;20460;-51
2021/06/21 07:17:51;;;;;;;0.50;0.30;;;;;;;22.36;88.35;99334.66;5011701;28;20456;-51
2021/06/21 07:20:18;;;;;;;0.50;0.20;;;;;;;22.68;87.48;99336.19;5013045;28;20496;-51
2021/06/21 07:22:45;;;;;;;0.50;0.20;;;;;;;22.20;87.94;99338.88;5010391;28;20452;-50
2021/06/21 07:25:12;;;;;;;0.50;0.20;;;;;;;22.28;88.29;99344.47;5008586;28;20511;-51
2021/06/21 07:27:39;;;;;;;2.53;0.60;;;;;;;22.41;87.77;99343.19;5012603;28;20515;-51
2021/06/21 07:30:06;;;;;;;0.50;0.20;;;;;;;22.70;87.70;99337.75;5011919;28;20468;-51
2021/06/21 07:32:33;;;;;;;0.50;0.20;;;;;;;22.51;87.93;99343.19;5013547;28;20455;-51
2021/06/21 07:35:00;;;;;;;0.50;0.20;;;;;;;22.27;88.81;99345.47;5008177;28;20923;-51
2021/06/21 07:37:27;;;;;;;0.50;0.20;;;;;;;22.50;88.62;99343.34;5006750;28;20488;-50
2021/06/21 07:39:53;;;;;;;4.53;1.83;;;;;;;22.56;87.78;99349.03;5007218;28;20485;-51
2021/06/21 07:42:20;;;;;;;0.70;0.63;;;;;;;22.64;87.10;99348.31;5004470;28;20535;-51
2021/06/21 07:44:47;;;;;;;0.50;0.20;;;;;;;22.37;88.37;99341.78;5012428;28;20448;-51
2021/06/21 07:47:13;;;;;;;0.50;0.20;;;;;;;22.63;88.05;99352.91;5011122;28;20495;-51
2021/06/21 07:49:40;;;;;;;0.50;0.20;;;;;;;22.68;87.58;99347.88;5001503;28;20493;-51
2021/06/21 07:52:07;;;;;;;1.37;1.17;;;;;;;22.34;88.09;99352.00;5004502;28;20971;-51
2021/06/21 07:54:34;;;;;;;0.50;0.30;;;;;;;22.61;87.12;99359.44;5010692;28;20448;-51
2021/06/21 07:57:00;;;;;;;0.50;0.20;;;;;;;22.58;86.85;99357.88;5012537;28;20514;-51
2021/06/21 07:59:28;;;;;;;0.50;0.30;;;;;;;23.16;85.37;99363.22;5012211;28;20864;-51
2021/06/21 08:01:54;;;;;;;0.60;0.60;;;;;;;22.34;86.94;99361.03;5012263;28;20452;-50
2021/06/21 08:04:21;;;;;;;0.50;0.30;;;;;;;22.66;86.29;99358.03;5006583;28;20537;-51
2021/06/21 08:06:48;;;;;;;0.50;0.20;;;;;;;22.53;87.27;99353.88;5004595;28;20833;-51
2021/06/21 08:09:14;;;;;;;0.50;0.20;;;;;;;22.94;85.42;99358.16;5011114;28;20541;-51
2021/06/21 08:11:41;;;;;;;0.50;0.20;;;;;;;22.75;86.52;99373.44;5012080;28;20511;-51
2021/06/21 08:14:11;;;;;;;0.60;0.50;;;;;;;22.66;85.94;99368.00;5010657;28;20489;-51
2021/06/21 08:16:37;;;;;;;0.50;0.30;;;;;;;22.81;85.64;99369.28;5004904;28;20486;-51
2021/06/21 08:19:04;;;;;;;0.60;0.53;;;;;;;22.51;86.54;99370.28;5012130;28;20458;-51
2021/06/21 08:21:30;;;;;;;0.50;0.20;;;;;;;22.67;86.37;99373.28;5011736;28;20898;-51
2021/06/21 08:23:58;;;;;;;0.50;0.30;;;;;;;23.07;85.23;99376.84;5012178;28;20507;-51
2021/06/21 08:26:25;;;;;;;0.50;0.37;;;;;;;22.98;85.37;99365.00;5006084;28;20450;-51
2021/06/21 08:28:52;;;;;;;0.50;0.20;;;;;;;23.14;85.12;99369.81;4986159;28;20453;-51
2021/06/21 08:31:19;;;;;;;0.50;0.20;;;;;;;23.17;83.78;99380.38;5011980;28;20472;-51
2021/06/21 08:33:45;;;;;;;0.50;0.27;;;;;;;23.33;83.93;99378.75;5004474;28;20952;-51
2021/06/21 08:36:12;;;;;;;0.53;0.50;;;;;;;23.63;82.20;99377.69;5010727;28;20452;-51
2021/06/21 08:38:39;;;;;;;0.50;0.20;;;;;;;23.52;81.62;99377.81;5012220;28;20423;-51
2021/06/21 08:41:06;;;;;;;0.50;0.23;;;;;;;23.34;82.38;99380.47;5001294;28;20491;-51
2021/06/21 08:43:34;;;;;;;0.50;0.30;;;;;;;23.41;82.70;99374.44;5012083;28;20901;-51
2021/06/21 08:46:01;;;;;;;0.60;0.40;;;;;;;24.10;82.79;99372.13;4999832;28;20469;-52
2021/06/21 08:48:32;;;;;;;3.80;1.90;;;;;;;23.59;81.90;99373.56;5003961;28;20468;-51
2021/06/21 08:51:00;;;;;;;0.50;0.20;;;;;;;23.90;81.00;99381.41;5015722;28;20492;-53
2021/06/21 08:53:27;;;;;;;0.50;0.20;;;;;;;24.42;80.56;99374.41;5015874;28;20457;-51
2021/06/21 08:55:54;;;;;;;0.50;0.20;;;;;;;24.72;78.08;99367.69;5015819;28;20485;-51
2021/06/21 08:58:21;;;;;;;0.50;0.20;;;;;;;24.48;78.65;99376.47;5015497;28;20530;-51
2021/06/21 09:00:48;;;;;;;0.50;0.20;;;;;;;24.73;77.36;99376.72;5015227;28;20500;-51
2021/06/21 09:03:16;;;;;;;1.57;1.03;;;;;;;24.64;77.03;99381.22;5015484;28;20952;-51
2021/06/21 09:05:43;;;;;;;0.50;0.30;;;;;;;24.41;78.70;99379.97;5015280;28;21004;-51
2021/06/21 09:08:10;;;;;;;0.80;0.50;;;;;;;25.00;76.33;99384.78;5014407;28;20485;-51
2021/06/21 09:10:38;;;;;;;1.17;1.07;;;;;;;24.80;77.39;99388.66;5015012;28;20497;-51
2021/06/21 09:13:13;;;;;;;0.50;0.30;;;;;;;24.19;78.03;99392.09;5015373;28;20430;-51
2021/06/21 09:15:43;;;;;;;0.50;0.30;;;;;;;24.70;76.77;99399.63;5014909;28;20431;-51
2021/06/21 09:18:34;;;;;;;0.60;0.50;;;;;;;24.29;76.20;99387.47;5015402;28;20448;-51
2021/06/21 09:21:27;;;;;;;0.50;0.23;;;;;;;25.00;76.14;99401.09;5015200;28;20496;-51
2021/06/21 09:24:32;;;;;;;0.50;0.20;;;;;;;24.71;76.73;99403.19;5015112;28;20505;-52
2021/06/21 09:27:00;;;;;;;0.50;0.20;;;;;;;24.80;76.71;99386.78;5012477;28;20468;-51
2021/06/21 09:29:39;;;;;;;0.50;0.30;;;;;;;24.65;77.41;99401.09;5015032;28;20452;-51
2021/06/21 09:32:58;;;;;;;0.50;0.30;;;;;;;25.19;76.20;99397.31;5015207;28;20427;-51
2021/06/21 09:35:31;;;;;;;8.33;1.63;;;;;;;25.03;77.14;99400.78;4982523;28;20510;-52
2021/06/21 09:38:07;;;;;;;0.50;0.27;;;;;;;25.47;74.59;99402.59;5014772;28;20431;-51
2021/06/21 09:40:37;;;;;;;0.50;0.40;;;;;;;25.87;73.26;99402.00;5014616;28;20467;-51
2021/06/21 09:43:24;;;;;;;0.50;0.30;;;;;;;25.79;72.70;99405.56;5014890;28;20828;-51
2021/06/21 09:46:20;;;;;;;0.50;0.30;;;;;;;26.66;71.40;99409.78;5013160;28;20419;-51
2021/06/21 09:48:49;;;;;;;0.50;0.40;;;;;;;26.39;70.97;99404.59;5014629;28;20459;-51
2021/06/21 09:51:18;;;;;;;0.60;0.40;;;;;;;26.06;69.92;99411.81;5013415;28;20482;-51
2021/06/21 09:54:04;;;;;;;0.50;0.30;;;;;;;26.49;69.08;99410.78;5014968;28;20510;-50
2021/06/21 09:56:40;;;;;;;0.50;0.30;;;;;;;26.45;69.35;99420.28;5014633;28;20485;-51
2021/06/21 09:59:45;;;;;;;0.50;0.30;;;;;;;26.06;70.85;99422.72;5014384;28;20418;-51
2021/06/21 10:02:18;;;;;;;0.60;0.60;;;;;;;25.57;71.02;99414.25;5014363;28;20488;-50
2021/06/21 10:04:45;;;;;;;0.50;0.30;;;;;;;25.65;71.00;99423.31;5014285;28;20901;-50
2021/06/21 10:07:30;;;;;;;0.50;0.30;;;;;;;25.52;72.08;99424.78;5014085;28;20435;-50
2021/06/21 10:10:18;;;;;;;0.60;0.60;;;;;;;25.31;71.30;99419.69;5013929;28;20505;-49
2021/06/21 10:12:45;;;;;;;0.60;0.50;;;;;;;25.78;71.12;99435.69;5014286;28;20419;-50
2021/06/21 10:15:13;;;;;;;1.00;0.80;;;;;;;26.34;69.80;99442.38;5013988;28;20467;-50
2021/06/21 10:17:40;;;;;;;0.50;0.30;;;;;;;25.83;70.42;99442.34;5013747;28;20461;-50
2021/06/21 10:20:09;;;;;;;0.53;0.40;;;;;;;26.75;67.43;99437.91;5013458;28;20487;-51
2021/06/21 10:22:37;;;;;;;0.50;0.47;;;;;;;27.02;66.59;99437.63;5001876;28;20449;-50
2021/06/21 10:25:05;;;;;;;0.50;0.23;;;;;;;26.44;67.53;99440.38;5010722;28;20460;-50
2021/06/21 10:27:33;;;;;;;0.50;0.40;;;;;;;26.65;66.20;99440.78;5013770;28;20505;-50
2021/06/21 10:29:59;;;;;;;0.50;0.40;;;;;;;26.71;67.69;99434.66;5013748;28;20448;-50
2021/06/21 10:32:29;;;;;;;0.60;0.37;;;;;;;27.13;67.45;99429.06;5010186;28;20449;-50
2021/06/21 10:34:56;;;;;;;0.50;0.20;;;;;;;27.42;64.98;99434.03;5011658;28;20954;-50
2021/06/21 10:37:25;;;;;;;0.50;0.30;;;;;;;27.01;65.62;99430.47;5012429;28;20436;-50
2021/06/21 10:39:59;;;;;;;0.50;0.30;;;;;;;27.26;65.34;99433.16;5008672;28;20922;-50
2021/06/21 10:42:34;;;;;;;0.50;0.20;;;;;;;26.82;65.15;99441.66;5005991;28;20470;-51
2021/06/21 10:45:02;;;;;;;0.60;0.40;;;;;;;26.93;65.22;99435.88;5013507;28;20509;-51
2021/06/21 10:48:05;;;;;;;0.50;0.30;;;;;;;27.26;65.13;99436.75;5006220;28;20479;-51
2021/06/21 10:50:32;;;;;;;0.50;0.20;;;;;;;27.36;64.63;99440.16;4997469;28;20455;-51
2021/06/21 10:53:01;;;;;;;0.50;0.40;;;;;;;27.44;64.44;99440.16;5013389;28;20476;-50
2021/06/21 10:55:33;;;;;;;0.50;0.30;;;;;;;28.14;62.75;99446.84;5013271;28;20455;-51
2021/06/21 10:58:07;;;;;;;0.50;0.27;;;;;;;27.10;64.08;99456.72;5011890;28;20486;-50
2021/06/21 11:00:36;;;;;;;0.50;0.30;;;;;;;26.86;64.41;99452.09;5013139;28;20471;-50
2021/06/21 11:03:23;;;;;;;0.50;0.30;;;;;;;27.28;65.05;99450.25;5013078;28;20427;-51
2021/06/21 11:05:52;;;;;;;0.50;0.20;;;;;;;27.28;63.35;99452.97;5003955;28;20456;-50
2021/06/21 11:08:21;;;;;;;0.50;0.20;;;;;;;27.13;64.13;99455.50;5001325;28;20436;-51
2021/06/21 11:10:51;;;;;;;0.50;0.40;;;;;;;27.06;63.08;99458.09;5011184;28;20850;-51
2021/06/21 11:13:36;;;;;;;0.50;0.30;;;;;;;27.02;62.37;99464.06;5013182;28;20462;-51
2021/06/21 11:16:15;;;;;;;0.53;0.40;;;;;;;27.18;61.59;99452.31;5012837;28;20452;-50
2021/06/21 11:18:43;;;;;;;0.50;0.40;;;;;;;27.40;60.93;99455.16;5012749;28;20456;-50
2021/06/21 11:21:15;;;;;;;0.50;0.20;;;;;;;27.51;62.42;99459.41;5013050;28;20542;-50
2021/06/21 11:23:47;;;;;;;0.50;0.20;;;;;;;27.58;60.58;99455.00;5012796;28;20477;-50
2021/06/21 11:26:14;;;;;;;0.50;0.30;;;;;;;27.87;61.48;99459.06;5012765;28;20444;-50
2021/06/21 11:28:45;;;;;;;0.50;0.30;;;;;;;27.61;60.97;99448.31;5005255;28;20461;-50
2021/06/21 11:31:26;;;;;;;0.60;0.40;;;;;;;28.10;60.78;99445.47;5012634;28;20469;-50
2021/06/21 11:34:01;;;;;;;0.50;0.30;;;;;;;27.96;60.65;99445.19;5013034;28;20507;-50
2021/06/21 11:36:48;;;;;;;0.50;0.30;;;;;;;28.28;60.25;99441.50;5009701;28;20517;-50
2021/06/21 11:39:23;;;;;;;0.70;0.67;;;;;;;28.24;59.12;99429.19;5012529;28;20481;-51
2021/06/21 11:42:02;;;;;;;0.53;0.30;;;;;;;28.23;59.52;99432.94;4986628;28;20497;-51
2021/06/21 11:44:49;;;;;;;0.50;0.20;;;;;;;28.90;57.01;99432.41;5010648;28;20464;-53
2021/06/21 11:47:22;;;;;;;0.50;0.30;;;;;;;28.46;57.92;99440.38;5011101;28;20463;-51